Time;durP1;ratioP1;P1;durP2;ratioP2;P2;SDS_P1;SDS_P2;PMS_P1;PMS_P2;Temp;Humidity;BMP_temperature;BMP_pressure;BME280_temperature;BME280_humidity;BME280_pressure;Samples;Min_cycle;Max_cycle;Signal;HPM_P1;HPM_P2
2022/12/23 00:00:08;;;;;;;74.78;21.77;;;;;;;;;;5035793;28;20123;-76
2022/12/23 00:02:35;;;;;;;84.55;24.67;;;;;;;;;;5059596;28;20029;-77
2022/12/23 00:05:01;;;;;;;87.32;22.45;;;;;;;;;;5033796;28;20017;-76
2022/12/23 00:07:26;;;;;;;94.82;24.25;;;;;;;;;;5050740;28;20047;-76
2022/12/23 00:09:52;;;;;;;84.68;22.90;;;;;;;;;;5033369;28;20127;-76
2022/12/23 00:15:04;;;;;;;97.18;23.38;;;;;;;;;;5050897;28;20128;-77
2022/12/23 00:17:33;;;;;;;124.57;27.60;;;;;;;;;;5017816;28;20400;-77
2022/12/23 00:19:58;;;;;;;182.02;27.90;;;;;;;;;;5032169;28;20040;-77
2022/12/23 00:23:03;;;;;;;222.70;28.83;;;;;;;;;;5038478;28;20506;-77
2022/12/23 00:25:10;;;;;;;103.93;23.95;;;;;;;;;;5056422;28;20494;-77
2022/12/23 00:27:35;;;;;;;82.55;21.98;;;;;;;;;;5013202;28;20035;-77
2022/12/23 00:30:01;;;;;;;76.78;22.52;;;;;;;;;;5031123;28;20135;-77
2022/12/23 00:32:26;;;;;;;83.18;23.02;;;;;;;;;;5064289;28;20036;-76
2022/12/23 00:34:51;;;;;;;96.05;23.92;;;;;;;;;;5060283;28;20042;-77
2022/12/23 00:37:17;;;;;;;70.95;21.92;;;;;;;;;;5031065;28;20468;-77
2022/12/23 00:45:16;;;;;;;76.65;23.17;;;;;;;;;;5049523;28;20032;-77
2022/12/23 00:53:10;;;;;;;73.68;23.13;;;;;;;;;;5055158;28;20033;-77
2022/12/23 00:55:35;;;;;;;57.42;22.40;;;;;;;;;;5019917;28;20047;-78
2022/12/23 00:58:01;;;;;;;54.13;21.70;;;;;;;;;;5053534;28;20381;-78
2022/12/23 01:06:01;;;;;;;47.38;20.48;;;;;;;;;;5045649;28;20083;-77
2022/12/23 01:08:26;;;;;;;50.42;18.98;;;;;;;;;;5037347;28;20037;-77
2022/12/23 01:13:36;;;;;;;49.28;20.25;;;;;;;;;;5057829;28;20059;-77
2022/12/23 01:16:02;;;;;;;43.17;20.23;;;;;;;;;;5058864;28;20049;-77
2022/12/23 01:18:28;;;;;;;49.78;20.15;;;;;;;;;;5035284;28;20452;-77
2022/12/23 01:20:53;;;;;;;40.70;18.98;;;;;;;;;;5053701;28;20112;-77
2022/12/23 01:26:03;;;;;;;43.53;20.45;;;;;;;;;;5053988;28;20398;-77
2022/12/23 01:31:13;;;;;;;47.92;19.80;;;;;;;;;;5054799;28;20375;-77
2022/12/23 01:33:39;;;;;;;51.83;19.80;;;;;;;;;;5053806;28;20036;-77
2022/12/23 01:36:05;;;;;;;41.47;17.00;;;;;;;;;;5053222;28;20041;-77
2022/12/23 01:38:30;;;;;;;45.25;19.23;;;;;;;;;;5013060;28;20128;-77
2022/12/23 01:40:56;;;;;;;46.30;19.67;;;;;;;;;;5048789;28;20112;-77
2022/12/23 01:46:05;;;;;;;45.70;19.15;;;;;;;;;;5037828;28;20487;-79
2022/12/23 01:48:31;;;;;;;47.97;21.40;;;;;;;;;;5052838;28;20032;-78
2022/12/23 01:53:46;;;;;;;42.53;19.65;;;;;;;;;;5019839;28;20037;-78
2022/12/23 01:56:12;;;;;;;39.50;18.05;;;;;;;;;;5034557;28;20027;-78
2022/12/23 01:58:37;;;;;;;;;;;;;;;;;;5034855;28;20082;-77
2022/12/23 02:03:47;;;;;;;34.63;16.75;;;;;;;;;;5037967;28;20459;-77
2022/12/23 02:09:17;;;;;;;32.95;17.27;;;;;;;;;;5053301;28;20033;-76
2022/12/23 02:17:36;;;;;;;28.13;14.82;;;;;;;;;;5052491;28;20045;-78
2022/12/23 02:23:23;;;;;;;24.45;14.52;;;;;;;;;;5054583;28;20040;-76
2022/12/23 02:26:11;;;;;;;24.92;14.73;;;;;;;;;;5051836;28;20048;-77
2022/12/23 02:28:37;;;;;;;25.00;14.63;;;;;;;;;;5047369;28;20072;-76
2022/12/23 02:31:02;;;;;;;24.02;14.15;;;;;;;;;;5033743;28;20056;-76
2022/12/23 02:36:31;;;;;;;21.25;13.30;;;;;;;;;;5036835;28;20041;-76
2022/12/23 02:39:15;;;;;;;21.15;12.30;;;;;;;;;;5034176;28;20033;-77
2022/12/23 02:41:42;;;;;;;18.50;11.57;;;;;;;;;;5052249;28;20051;-77
2022/12/23 02:44:13;;;;;;;19.27;12.63;;;;;;;;;;5033850;28;20032;-76
2022/12/23 02:46:45;;;;;;;18.65;12.98;;;;;;;;;;5025081;28;20123;-77
2022/12/23 02:49:11;;;;;;;20.05;13.52;;;;;;;;;;5034921;28;20045;-79
2022/12/23 02:51:37;;;;;;;19.25;12.77;;;;;;;;;;5057224;28;20043;-77
2022/12/23 02:54:03;;;;;;;21.02;12.70;;;;;;;;;;5043635;28;20028;-77
2022/12/23 02:56:29;;;;;;;19.70;13.15;;;;;;;;;;5058077;28;20032;-77
2022/12/23 02:58:56;;;;;;;23.40;13.70;;;;;;;;;;5039347;28;20380;-77
2022/12/23 03:01:22;;;;;;;21.17;13.55;;;;;;;;;;5033286;28;20029;-77
2022/12/23 03:03:47;;;;;;;20.85;13.70;;;;;;;;;;5059795;28;20028;-77
2022/12/23 03:06:32;;;;;;;22.55;13.48;;;;;;;;;;5037943;28;20029;-78
2022/12/23 03:08:58;;;;;;;20.25;13.48;;;;;;;;;;5033423;28;20033;-78
2022/12/23 03:14:27;;;;;;;22.10;13.88;;;;;;;;;;5044454;28;20048;-76
2022/12/23 03:16:56;;;;;;;23.67;14.75;;;;;;;;;;5032798;28;20419;-76
2022/12/23 03:22:11;;;;;;;22.92;13.77;;;;;;;;;;5050923;28;20082;-78
2022/12/23 03:24:40;;;;;;;20.27;13.18;;;;;;;;;;5042420;28;20025;-75
2022/12/23 03:27:07;;;;;;;18.83;12.98;;;;;;;;;;5036853;28;20136;-77
2022/12/23 03:29:36;;;;;;;22.52;14.50;;;;;;;;;;5018393;28;20024;-76
2022/12/23 03:32:01;;;;;;;18.38;12.82;;;;;;;;;;5033146;28;20049;-78
2022/12/23 03:34:28;;;;;;;23.70;15.27;;;;;;;;;;5032732;28;20033;-76
2022/12/23 03:36:55;;;;;;;22.33;14.27;;;;;;;;;;5012900;28;20033;-76
2022/12/23 03:39:21;;;;;;;22.08;13.82;;;;;;;;;;5030014;28;20028;-78
2022/12/23 03:41:47;;;;;;;19.77;13.77;;;;;;;;;;5034018;28;20036;-78
2022/12/23 03:44:17;;;;;;;19.70;13.05;;;;;;;;;;5019240;28;20116;-77
2022/12/23 03:46:45;;;;;;;21.00;13.43;;;;;;;;;;5029601;28;20552;-76
2022/12/23 03:49:22;;;;;;;21.13;14.30;;;;;;;;;;5016487;28;20021;-78
2022/12/23 03:51:48;;;;;;;18.98;12.95;;;;;;;;;;5033023;28;20066;-76
2022/12/23 03:54:15;;;;;;;21.23;13.80;;;;;;;;;;5017819;28;20874;-79
2022/12/23 03:56:42;;;;;;;19.73;13.00;;;;;;;;;;5052488;28;20056;-77
2022/12/23 03:59:11;;;;;;;19.15;12.82;;;;;;;;;;5032661;28;20043;-77
2022/12/23 04:01:53;;;;;;;17.27;12.43;;;;;;;;;;5031832;28;20041;-77
2022/12/23 04:04:26;;;;;;;21.00;13.70;;;;;;;;;;5032441;28;20175;-78
2022/12/23 04:06:56;;;;;;;19.70;13.43;;;;;;;;;;5015882;28;20033;-79
2022/12/23 04:09:22;;;;;;;18.92;13.40;;;;;;;;;;5032951;28;20094;-79
2022/12/23 04:11:47;;;;;;;19.35;12.98;;;;;;;;;;5045756;28;20037;-78
2022/12/23 04:14:20;;;;;;;20.55;13.02;;;;;;;;;;5036314;28;20048;-78
2022/12/23 04:16:46;;;;;;;19.80;13.65;;;;;;;;;;5024928;28;20076;-77
2022/12/23 04:19:11;;;;;;;22.42;14.82;;;;;;;;;;5053983;28;20041;-78
2022/12/23 04:21:37;;;;;;;19.15;13.18;;;;;;;;;;5039314;28;20041;-78
2022/12/23 04:24:02;;;;;;;20.42;13.18;;;;;;;;;;5065785;28;20029;-78
2022/12/23 04:26:28;;;;;;;17.73;13.25;;;;;;;;;;5071110;28;20064;-78
2022/12/23 04:28:53;;;;;;;16.73;12.60;;;;;;;;;;5055109;28;20093;-78
2022/12/23 04:31:18;;;;;;;18.65;12.85;;;;;;;;;;5064588;28;20114;-79
2022/12/23 04:33:44;;;;;;;18.45;13.35;;;;;;;;;;5042093;28;20043;-78
2022/12/23 04:36:10;;;;;;;17.23;12.48;;;;;;;;;;5045667;28;20635;-78
2022/12/23 04:38:35;;;;;;;16.88;12.50;;;;;;;;;;5025062;28;20040;-77
2022/12/23 04:41:01;;;;;;;17.23;12.68;;;;;;;;;;5060455;28;20040;-79
2022/12/23 04:43:26;;;;;;;18.13;13.32;;;;;;;;;;5064350;28;20119;-78
2022/12/23 04:45:52;;;;;;;18.30;12.40;;;;;;;;;;5055827;28;20136;-78
2022/12/23 04:48:17;;;;;;;16.30;12.35;;;;;;;;;;5046595;28;20035;-79
2022/12/23 04:53:27;;;;;;;15.00;11.70;;;;;;;;;;5052641;28;20505;-78
2022/12/23 04:55:52;;;;;;;17.85;12.18;;;;;;;;;;5068273;28;20059;-79
2022/12/23 04:58:20;;;;;;;18.27;12.48;;;;;;;;;;5047440;28;20055;-77
2022/12/23 05:00:46;;;;;;;17.13;12.27;;;;;;;;;;5040512;28;20419;-78
2022/12/23 05:03:12;;;;;;;15.63;11.95;;;;;;;;;;5042181;28;20046;-77
2022/12/23 05:05:41;;;;;;;14.75;11.10;;;;;;;;;;5041617;28;20486;-80
2022/12/23 05:08:07;;;;;;;14.70;10.57;;;;;;;;;;5029428;28;20460;-79
2022/12/23 05:10:33;;;;;;;15.15;10.60;;;;;;;;;;5039516;28;20070;-79
2022/12/23 05:15:43;;;;;;;13.60;10.35;;;;;;;;;;5057592;28;20083;-78
2022/12/23 05:18:08;;;;;;;;;;;;;;;;;;5020453;28;20060;-80
2022/12/23 05:20:33;;;;;;;16.52;10.55;;;;;;;;;;5035265;28;20304;-77
2022/12/23 05:22:59;;;;;;;13.00;10.23;;;;;;;;;;5019900;28;20056;-79
2022/12/23 05:25:24;;;;;;;15.10;10.15;;;;;;;;;;5053867;28;20433;-78
2022/12/23 05:27:50;;;;;;;12.50;9.35;;;;;;;;;;5053980;28;20029;-78
2022/12/23 05:30:15;;;;;;;12.82;9.80;;;;;;;;;;5053264;28;20032;-76
2022/12/23 05:32:41;;;;;;;12.35;9.93;;;;;;;;;;5053585;28;20108;-76
2022/12/23 05:37:50;;;;;;;11.73;9.60;;;;;;;;;;5053847;28;20029;-78
2022/12/23 05:40:16;;;;;;;12.15;9.25;;;;;;;;;;5053238;28;20332;-77
2022/12/23 05:42:41;;;;;;;15.48;11.63;;;;;;;;;;5035804;28;20041;-77
2022/12/23 05:45:07;;;;;;;14.07;10.32;;;;;;;;;;5053005;28;20033;-76
2022/12/23 05:47:32;;;;;;;12.60;9.90;;;;;;;;;;5052218;28;20504;-79
2022/12/23 05:49:58;;;;;;;14.15;10.18;;;;;;;;;;5034750;28;20112;-77
2022/12/23 05:52:23;;;;;;;14.13;11.27;;;;;;;;;;5053582;28;20033;-77
2022/12/23 05:54:49;;;;;;;14.48;10.48;;;;;;;;;;5052638;28;20538;-78
2022/12/23 05:57:15;;;;;;;14.32;10.88;;;;;;;;;;5017623;28;20083;-77
2022/12/23 05:59:40;;;;;;;12.80;10.20;;;;;;;;;;5053090;28;20040;-77
2022/12/23 06:04:50;;;;;;;13.48;10.27;;;;;;;;;;5053177;28;20077;-78
2022/12/23 06:07:15;;;;;;;12.20;9.90;;;;;;;;;;5053860;28;20029;-79
2022/12/23 06:09:41;;;;;;;12.40;9.68;;;;;;;;;;5035704;28;20491;-76
2022/12/23 06:12:06;;;;;;;11.85;9.63;;;;;;;;;;5034846;28;20036;-77
2022/12/23 06:14:32;;;;;;;13.50;10.00;;;;;;;;;;5036633;28;20039;-77
2022/12/23 06:16:57;;;;;;;13.32;9.90;;;;;;;;;;5039353;28;20373;-78
2022/12/23 06:19:23;;;;;;;12.63;10.02;;;;;;;;;;5059819;28;20033;-77
2022/12/23 06:21:48;;;;;;;12.57;10.20;;;;;;;;;;5037518;28;20041;-76
2022/12/23 06:26:58;;;;;;;13.07;10.13;;;;;;;;;;5051562;28;20045;-79
2022/12/23 06:29:23;;;;;;;13.15;10.55;;;;;;;;;;5050784;28;20047;-77
2022/12/23 06:31:49;;;;;;;13.20;10.60;;;;;;;;;;5040295;28;20037;-79
2022/12/23 06:34:14;;;;;;;13.50;10.60;;;;;;;;;;5040430;28;20025;-76
2022/12/23 06:36:40;;;;;;;13.75;10.48;;;;;;;;;;5050930;28;20036;-78
2022/12/23 06:39:05;;;;;;;15.35;11.48;;;;;;;;;;5034010;28;20082;-79
2022/12/23 06:41:31;;;;;;;13.95;10.80;;;;;;;;;;5018539;28;20033;-75
2022/12/23 06:43:56;;;;;;;16.35;10.95;;;;;;;;;;5051504;28;20055;-79
2022/12/23 06:46:22;;;;;;;14.73;11.05;;;;;;;;;;5050834;28;20032;-78
2022/12/23 06:48:47;;;;;;;14.70;11.40;;;;;;;;;;5050927;28;20029;-77
2022/12/23 06:51:13;;;;;;;15.82;12.02;;;;;;;;;;5050850;28;20025;-78
2022/12/23 06:53:39;;;;;;;16.88;11.77;;;;;;;;;;5054231;28;20032;-78
2022/12/23 06:56:04;;;;;;;14.88;11.57;;;;;;;;;;5054210;28;20495;-78
2022/12/23 06:58:30;;;;;;;16.77;12.20;;;;;;;;;;5022806;28;20120;-78
2022/12/23 07:00:55;;;;;;;17.17;12.00;;;;;;;;;;5019724;28;20072;-78
2022/12/23 07:03:21;;;;;;;17.50;12.60;;;;;;;;;;5048818;28;20024;-76
2022/12/23 07:05:47;;;;;;;18.42;12.80;;;;;;;;;;5055137;28;20036;-79
2022/12/23 07:08:12;;;;;;;17.30;12.90;;;;;;;;;;5050311;28;20067;-78
2022/12/23 07:10:38;;;;;;;17.02;12.85;;;;;;;;;;5050824;28;20039;-79
2022/12/23 07:13:03;;;;;;;20.35;13.90;;;;;;;;;;5049835;28;20091;-76
2022/12/23 07:15:29;;;;;;;16.25;12.07;;;;;;;;;;5033474;28;20409;-78
2022/12/23 07:17:54;;;;;;;19.90;14.27;;;;;;;;;;5051373;28;20055;-77
2022/12/23 07:20:20;;;;;;;19.98;13.68;;;;;;;;;;5051464;28;20021;-78
2022/12/23 07:22:45;;;;;;;20.05;13.60;;;;;;;;;;5034315;28;20484;-78
2022/12/23 07:27:54;;;;;;;16.65;12.10;;;;;;;;;;5021510;28;20124;-78
2022/12/23 07:30:20;;;;;;;17.77;12.90;;;;;;;;;;5050335;28;20107;-78
2022/12/23 07:32:47;;;;;;;20.70;13.10;;;;;;;;;;5030421;28;20443;-78
2022/12/23 07:35:12;;;;;;;18.33;13.38;;;;;;;;;;5049266;28;20024;-80
2022/12/23 07:37:38;;;;;;;19.45;12.75;;;;;;;;;;5049444;28;20035;-77
2022/12/23 07:40:04;;;;;;;16.85;12.93;;;;;;;;;;5067355;28;20028;-78
2022/12/23 07:42:29;;;;;;;17.95;12.68;;;;;;;;;;5068471;28;20123;-78
2022/12/23 07:44:54;;;;;;;17.13;12.52;;;;;;;;;;5067499;28;20098;-78
2022/12/23 07:47:22;;;;;;;23.88;14.68;;;;;;;;;;5033174;28;20025;-77
2022/12/23 07:49:47;;;;;;;20.33;13.68;;;;;;;;;;5033274;28;20037;-78
2022/12/23 07:54:57;;;;;;;22.67;15.50;;;;;;;;;;5050785;28;20048;-78
2022/12/23 07:57:23;;;;;;;23.33;15.52;;;;;;;;;;5050721;28;20021;-79
2022/12/23 07:59:48;;;;;;;;;;;;;;;;;;5033071;28;20040;-78
2022/12/23 08:02:13;;;;;;;25.73;16.05;;;;;;;;;;5032092;28;19978;-78
2022/12/23 08:04:39;;;;;;;30.38;17.20;;;;;;;;;;5052890;28;20041;-78
2022/12/23 08:07:04;;;;;;;22.65;14.82;;;;;;;;;;5032121;28;20029;-79
2022/12/23 08:09:30;;;;;;;23.55;15.23;;;;;;;;;;5032121;28;20044;-79
2022/12/23 08:11:55;;;;;;;19.38;13.05;;;;;;;;;;5050516;28;20055;-79
2022/12/23 08:14:22;;;;;;;23.15;13.73;;;;;;;;;;5032033;28;20037;-78
2022/12/23 08:16:47;;;;;;;19.35;13.07;;;;;;;;;;5049699;28;20056;-78
2022/12/23 08:21:57;;;;;;;19.67;13.00;;;;;;;;;;5055930;28;20409;-79
2022/12/23 08:24:22;;;;;;;20.10;14.15;;;;;;;;;;5051277;28;20021;-78
2022/12/23 08:26:48;;;;;;;24.13;15.15;;;;;;;;;;5053226;28;20040;-79
2022/12/23 08:29:13;;;;;;;23.75;15.55;;;;;;;;;;5058978;28;20111;-78
2022/12/23 08:31:38;;;;;;;18.50;12.90;;;;;;;;;;5059047;28;20496;-78
2022/12/23 08:34:04;;;;;;;18.83;12.45;;;;;;;;;;5049538;28;20033;-78
2022/12/23 08:36:30;;;;;;;15.55;10.95;;;;;;;;;;5049615;28;20056;-79
2022/12/23 08:38:55;;;;;;;;;;;;;;;;;;5033488;28;20056;-79
2022/12/23 08:41:22;;;;;;;15.52;10.35;;;;;;;;;;5034618;28;20339;-78
2022/12/23 08:43:48;;;;;;;13.65;10.18;;;;;;;;;;5042937;28;20044;-78
2022/12/23 08:46:13;;;;;;;14.20;10.40;;;;;;;;;;5028307;28;20025;-79
2022/12/23 08:48:39;;;;;;;13.82;9.38;;;;;;;;;;5045888;28;20032;-76
2022/12/23 08:51:06;;;;;;;17.65;8.77;;;;;;;;;;5032224;28;20416;-79
2022/12/23 08:53:32;;;;;;;13.43;9.05;;;;;;;;;;5049824;28;20057;-78
2022/12/23 08:56:00;;;;;;;12.38;8.85;;;;;;;;;;5049294;28;20107;-79
2022/12/23 08:58:25;;;;;;;10.63;7.97;;;;;;;;;;5062259;28;20052;-79
2022/12/23 09:00:51;;;;;;;12.82;8.77;;;;;;;;;;5035654;28;20114;-79
2022/12/23 09:03:16;;;;;;;11.35;8.18;;;;;;;;;;5047934;28;20418;-79
2022/12/23 09:05:42;;;;;;;9.68;7.28;;;;;;;;;;5042856;28;20579;-79
2022/12/23 09:08:07;;;;;;;9.45;6.93;;;;;;;;;;5047383;28;20117;-78
2022/12/23 09:10:33;;;;;;;9.95;7.28;;;;;;;;;;5036314;28;20039;-78
2022/12/23 09:12:59;;;;;;;12.85;7.80;;;;;;;;;;5052812;28;20025;-78
2022/12/23 09:18:09;;;;;;;11.30;9.00;;;;;;;;;;5053182;28;20040;-78
2022/12/23 09:20:34;;;;;;;10.13;8.40;;;;;;;;;;5052517;28;20032;-78
2022/12/23 09:23:00;;;;;;;9.32;7.63;;;;;;;;;;5055629;28;20514;-78
2022/12/23 09:25:25;;;;;;;9.93;7.40;;;;;;;;;;5039089;28;20048;-78
2022/12/23 09:27:51;;;;;;;8.65;6.85;;;;;;;;;;5035346;28;20083;-78
2022/12/23 09:30:16;;;;;;;9.00;6.93;;;;;;;;;;5063284;28;20518;-77
2022/12/23 09:32:42;;;;;;;8.27;6.53;;;;;;;;;;5034481;28;20055;-79
2022/12/23 09:35:08;;;;;;;9.05;7.18;;;;;;;;;;5052808;28;20037;-78
2022/12/23 09:37:34;;;;;;;9.45;6.55;;;;;;;;;;5035403;28;20526;-78
2022/12/23 09:40:00;;;;;;;7.18;5.53;;;;;;;;;;5052745;28;20029;-77
2022/12/23 09:42:34;;;;;;;8.07;5.88;;;;;;;;;;5054186;28;20064;-78
2022/12/23 09:45:18;;;;;;;9.00;6.10;;;;;;;;;;5048507;28;20127;-79
2022/12/23 09:47:44;;;;;;;6.88;5.63;;;;;;;;;;5026003;28;20178;-79
2022/12/23 09:50:14;;;;;;;12.57;7.03;;;;;;;;;;5037907;28;20150;-79
2022/12/23 09:52:42;;;;;;;7.07;5.70;;;;;;;;;;5034720;28;20033;-79
2022/12/23 09:55:08;;;;;;;6.22;5.13;;;;;;;;;;5020842;28;20024;-77
2022/12/23 09:57:35;;;;;;;;;;;;;;;;;;5034606;28;20519;-79
2022/12/23 10:00:10;;;;;;;7.22;5.70;;;;;;;;;;5034292;28;19916;-78
2022/12/23 10:02:51;;;;;;;7.32;5.93;;;;;;;;;;5035001;28;20504;-79
2022/12/23 10:05:23;;;;;;;7.15;6.00;;;;;;;;;;5051918;28;20043;-78
2022/12/23 10:10:46;;;;;;;8.00;6.32;;;;;;;;;;5044961;28;20532;-80
2022/12/23 10:13:25;;;;;;;9.02;7.50;;;;;;;;;;5017592;28;20047;-79
2022/12/23 10:15:51;;;;;;;7.95;6.25;;;;;;;;;;5034393;28;20147;-79
2022/12/23 10:18:21;;;;;;;7.15;6.07;;;;;;;;;;5034364;28;20172;-80
2022/12/23 10:20:47;;;;;;;7.88;6.50;;;;;;;;;;5036194;28;20504;-77
2022/12/23 10:23:17;;;;;;;7.28;5.72;;;;;;;;;;5009586;28;20025;-78
2022/12/23 10:25:48;;;;;;;8.10;6.57;;;;;;;;;;5033938;28;20037;-78
2022/12/23 10:28:13;;;;;;;7.50;6.13;;;;;;;;;;5044630;28;20037;-78
2022/12/23 10:30:39;;;;;;;7.70;6.10;;;;;;;;;;5033897;28;20024;-78
2022/12/23 10:33:26;;;;;;;6.80;5.78;;;;;;;;;;5051221;28;20036;-79
2022/12/23 10:36:04;;;;;;;6.20;5.03;;;;;;;;;;5024661;28;20051;-77
2022/12/23 10:38:32;;;;;;;7.03;5.43;;;;;;;;;;5046284;28;20060;-78
2022/12/23 10:40:58;;;;;;;7.35;5.70;;;;;;;;;;5036271;28;20036;-78
2022/12/23 10:43:42;;;;;;;7.07;6.07;;;;;;;;;;5049166;28;20085;-78
2022/12/23 10:46:26;;;;;;;8.05;5.70;;;;;;;;;;5037813;28;20492;-79
2022/12/23 10:49:01;;;;;;;6.93;5.70;;;;;;;;;;5050944;28;20495;-78
2022/12/23 10:51:29;;;;;;;7.85;6.15;;;;;;;;;;5037462;28;20152;-80
2022/12/23 10:54:02;;;;;;;8.30;6.28;;;;;;;;;;5028233;28;20025;-77
2022/12/23 10:56:28;;;;;;;7.70;6.30;;;;;;;;;;5051214;28;20041;-78
2022/12/23 10:58:54;;;;;;;8.63;6.20;;;;;;;;;;5050955;28;20515;-78
2022/12/23 11:01:19;;;;;;;7.07;5.63;;;;;;;;;;5018587;28;20033;-79
2022/12/23 11:03:45;;;;;;;7.60;6.38;;;;;;;;;;5053541;28;20025;-78
2022/12/23 11:06:10;;;;;;;8.02;6.10;;;;;;;;;;5048245;28;20522;-78
2022/12/23 11:08:36;;;;;;;7.28;6.10;;;;;;;;;;5065404;28;20032;-79
2022/12/23 11:11:01;;;;;;;8.20;7.10;;;;;;;;;;5046409;28;20465;-79
2022/12/23 11:13:40;;;;;;;8.43;6.63;;;;;;;;;;5065370;28;20024;-79
2022/12/23 11:16:12;;;;;;;8.25;6.20;;;;;;;;;;5060279;28;20096;-79
2022/12/23 11:18:38;;;;;;;6.80;5.85;;;;;;;;;;5032733;28;20041;-78
2022/12/23 11:21:04;;;;;;;8.52;6.20;;;;;;;;;;5012722;28;20042;-78
2022/12/23 11:23:29;;;;;;;;;;;;;;;;;;5046901;28;20412;-78
2022/12/23 11:26:02;;;;;;;7.35;6.07;;;;;;;;;;5050621;28;19908;-77
2022/12/23 11:31:13;;;;;;;7.30;5.75;;;;;;;;;;5036164;28;20048;-76
2022/12/23 11:33:39;;;;;;;6.65;5.15;;;;;;;;;;5033196;28;20025;-79
2022/12/23 11:36:06;;;;;;;7.15;5.47;;;;;;;;;;5054463;28;20036;-79
2022/12/23 11:41:19;;;;;;;7.05;5.70;;;;;;;;;;5034596;28;20115;-79
2022/12/23 11:43:48;;;;;;;7.18;5.90;;;;;;;;;;5013433;28;20040;-78
2022/12/23 11:46:26;;;;;;;7.20;5.90;;;;;;;;;;5045416;28;20034;-79
2022/12/23 11:49:04;;;;;;;7.95;5.95;;;;;;;;;;5049966;28;20492;-78
2022/12/23 11:51:29;;;;;;;8.88;6.30;;;;;;;;;;5051008;28;20044;-79
2022/12/23 11:53:58;;;;;;;6.97;5.55;;;;;;;;;;5032437;28;20542;-78
2022/12/23 11:56:24;;;;;;;7.72;6.20;;;;;;;;;;5050252;28;20435;-78
2022/12/23 11:58:51;;;;;;;8.73;6.53;;;;;;;;;;5050172;28;20090;-78
2022/12/23 12:01:19;;;;;;;9.02;6.53;;;;;;;;;;5032249;28;20068;-79
2022/12/23 12:03:46;;;;;;;9.35;6.45;;;;;;;;;;5050143;28;20502;-78
2022/12/23 12:06:12;;;;;;;8.23;6.65;;;;;;;;;;5031724;28;20026;-77
2022/12/23 12:08:37;;;;;;;7.60;6.00;;;;;;;;;;5032162;28;20132;-78
2022/12/23 12:11:07;;;;;;;9.00;7.10;;;;;;;;;;5041170;28;20048;-80
2022/12/23 12:13:36;;;;;;;9.27;7.05;;;;;;;;;;5032075;28;20067;-80
2022/12/23 12:16:08;;;;;;;11.75;7.18;;;;;;;;;;5015497;28;20139;-79
2022/12/23 12:18:34;;;;;;;9.20;7.07;;;;;;;;;;5050172;28;20488;-77
2022/12/23 12:21:00;;;;;;;10.38;7.78;;;;;;;;;;5037536;28;20068;-78
2022/12/23 12:23:29;;;;;;;9.45;8.05;;;;;;;;;;5043553;28;20043;-79
2022/12/23 12:26:15;;;;;;;9.18;6.78;;;;;;;;;;5052029;28;20373;-78
2022/12/23 12:31:33;;;;;;;11.65;7.85;;;;;;;;;;5050377;28;20029;-78
2022/12/23 12:33:58;;;;;;;10.77;8.32;;;;;;;;;;5033745;28;20522;-79
2022/12/23 12:36:29;;;;;;;11.77;8.35;;;;;;;;;;5062708;28;20499;-78
2022/12/23 12:38:55;;;;;;;10.93;8.35;;;;;;;;;;5053452;28;20116;-80
2022/12/23 12:41:22;;;;;;;10.82;8.40;;;;;;;;;;5043148;28;20137;-79
2022/12/23 12:43:54;;;;;;;11.93;8.27;;;;;;;;;;5037059;28;20044;-79
2022/12/23 12:46:38;;;;;;;11.60;8.55;;;;;;;;;;5053696;28;20024;-79
2022/12/23 12:52:08;;;;;;;12.00;9.00;;;;;;;;;;5047419;28;20385;-79
2022/12/23 12:54:39;;;;;;;11.80;9.00;;;;;;;;;;5051417;28;20036;-77
2022/12/23 12:57:05;;;;;;;13.45;9.02;;;;;;;;;;5048393;28;20057;-78
2022/12/23 12:59:32;;;;;;;14.60;10.27;;;;;;;;;;5025756;28;20048;-79
2022/12/23 13:02:01;;;;;;;14.32;9.80;;;;;;;;;;5063560;28;20057;-79
2022/12/23 13:07:17;;;;;;;13.30;9.85;;;;;;;;;;5053659;28;20071;-80
2022/12/23 13:09:47;;;;;;;13.98;10.63;;;;;;;;;;5051257;28;20107;-80
2022/12/23 13:12:16;;;;;;;15.10;11.23;;;;;;;;;;5035141;28;20040;-78
2022/12/23 13:14:59;;;;;;;15.15;10.80;;;;;;;;;;5002236;28;20119;-78
2022/12/23 13:17:32;;;;;;;15.93;12.02;;;;;;;;;;5034910;28;20045;-80
2022/12/23 13:20:14;;;;;;;16.77;11.10;;;;;;;;;;5046096;28;20037;-79
2022/12/23 13:22:40;;;;;;;16.05;11.82;;;;;;;;;;5052985;28;20091;-77
2022/12/23 13:25:11;;;;;;;16.83;12.68;;;;;;;;;;5035199;28;20029;-78
2022/12/23 13:27:45;;;;;;;18.17;13.48;;;;;;;;;;5053158;28;20029;-77
2022/12/23 13:30:12;;;;;;;19.00;12.48;;;;;;;;;;5033310;28;20507;-78
2022/12/23 13:32:53;;;;;;;17.25;12.73;;;;;;;;;;5063529;28;20485;-79
2022/12/23 13:35:33;;;;;;;18.85;12.70;;;;;;;;;;5048644;28;20523;-78
2022/12/23 13:38:11;;;;;;;19.52;12.75;;;;;;;;;;5049527;28;20381;-79
2022/12/23 13:40:41;;;;;;;20.45;13.57;;;;;;;;;;5052377;28;20123;-79
2022/12/23 13:43:19;;;;;;;17.50;12.55;;;;;;;;;;5051486;28;20106;-78
2022/12/23 13:45:45;;;;;;;21.55;14.32;;;;;;;;;;5045102;28;20029;-79
2022/12/23 13:48:10;;;;;;;18.77;12.90;;;;;;;;;;5064825;28;20782;-79
2022/12/23 13:50:36;;;;;;;24.90;13.93;;;;;;;;;;5070464;28;20032;-79
2022/12/23 13:55:57;;;;;;;20.45;14.38;;;;;;;;;;5056413;28;20166;-79
2022/12/23 13:58:26;;;;;;;20.17;14.18;;;;;;;;;;5042362;28;20105;-78
2022/12/23 14:00:58;;;;;;;22.40;13.95;;;;;;;;;;5040457;28;20076;-78
2022/12/23 14:03:24;;;;;;;23.77;14.68;;;;;;;;;;5057506;28;20130;-78
2022/12/23 14:05:50;;;;;;;23.77;15.77;;;;;;;;;;5039060;28;20507;-78
2022/12/23 14:08:19;;;;;;;22.48;15.18;;;;;;;;;;5037519;28;20067;-78
2022/12/23 14:13:59;;;;;;;21.38;14.73;;;;;;;;;;5065659;28;20403;-78
2022/12/23 14:16:31;;;;;;;23.95;14.95;;;;;;;;;;5055491;28;20057;-80
2022/12/23 14:19:15;;;;;;;21.98;14.93;;;;;;;;;;5021558;28;20079;-79
2022/12/23 14:21:49;;;;;;;20.20;14.13;;;;;;;;;;5040562;28;20060;-78
2022/12/23 14:24:47;;;;;;;22.70;16.40;;;;;;;;;;5043564;28;20116;-78
2022/12/23 14:27:48;;;;;;;22.33;15.68;;;;;;;;;;4975335;28;20040;-78
2022/12/23 14:30:14;;;;;;;22.27;14.45;;;;;;;;;;4950831;28;20039;-78
2022/12/23 14:32:39;;;;;;;21.77;15.32;;;;;;;;;;5040104;28;20483;-79
2022/12/23 14:35:15;;;;;;;20.75;15.13;;;;;;;;;;5033969;28;20064;-79
2022/12/23 14:37:40;;;;;;;19.02;13.63;;;;;;;;;;5017031;28;20041;-79
2022/12/23 14:40:24;;;;;;;20.75;13.95;;;;;;;;;;5052093;28;20032;-79
2022/12/23 14:42:55;;;;;;;21.35;13.02;;;;;;;;;;5033409;28;20075;-78
2022/12/23 14:45:20;;;;;;;19.58;13.60;;;;;;;;;;5034620;28;20037;-79
2022/12/23 14:47:46;;;;;;;21.58;14.55;;;;;;;;;;5043040;28;20057;-79
2022/12/23 14:50:30;;;;;;;20.73;14.48;;;;;;;;;;5048268;28;20067;-77
2022/12/23 14:52:59;;;;;;;20.98;13.75;;;;;;;;;;5052475;28;20059;-78
2022/12/23 14:55:26;;;;;;;19.40;13.25;;;;;;;;;;5035003;28;20028;-77
2022/12/23 14:57:56;;;;;;;19.27;13.70;;;;;;;;;;5015796;28;20034;-79
2022/12/23 15:03:07;;;;;;;19.23;14.13;;;;;;;;;;5054132;28;20060;-78
2022/12/23 15:05:35;;;;;;;22.02;14.32;;;;;;;;;;5037843;28;20020;-79
2022/12/23 15:08:01;;;;;;;22.45;15.30;;;;;;;;;;5036251;28;20044;-78
2022/12/23 15:10:27;;;;;;;21.05;14.63;;;;;;;;;;5033760;28;20044;-77
2022/12/23 15:12:57;;;;;;;25.08;16.08;;;;;;;;;;5034251;28;20028;-77
2022/12/23 15:15:26;;;;;;;21.17;14.82;;;;;;;;;;5020401;28;20135;-78
2022/12/23 15:18:01;;;;;;;23.50;15.18;;;;;;;;;;5031427;28;20033;-79
2022/12/23 15:20:27;;;;;;;26.13;15.77;;;;;;;;;;5028252;28;20044;-78
2022/12/23 15:22:52;;;;;;;19.73;12.70;;;;;;;;;;5042478;28;20021;-79
2022/12/23 15:25:24;;;;;;;20.85;15.35;;;;;;;;;;5054620;28;20037;-79
2022/12/23 15:27:53;;;;;;;23.40;15.73;;;;;;;;;;5062986;28;20531;-78
2022/12/23 15:30:18;;;;;;;22.73;14.68;;;;;;;;;;5043355;28;20108;-79
2022/12/23 15:32:46;;;;;;;21.95;14.55;;;;;;;;;;5038787;28;20045;-79
2022/12/23 15:35:34;;;;;;;24.90;16.42;;;;;;;;;;5034892;28;20484;-78
2022/12/23 15:38:00;;;;;;;25.77;16.75;;;;;;;;;;5038066;28;20051;-79
2022/12/23 15:40:25;;;;;;;25.85;15.40;;;;;;;;;;5058588;28;20024;-78
2022/12/23 15:42:51;;;;;;;32.22;19.48;;;;;;;;;;5063140;28;20158;-79
2022/12/23 15:45:23;;;;;;;28.90;18.38;;;;;;;;;;5040870;28;20548;-79
2022/12/23 15:47:48;;;;;;;27.88;17.92;;;;;;;;;;5062645;28;20400;-78
2022/12/23 15:50:14;;;;;;;25.50;17.33;;;;;;;;;;5045539;28;20021;-79
2022/12/23 15:52:40;;;;;;;24.40;15.40;;;;;;;;;;5043181;28;20140;-79
2022/12/23 15:57:54;;;;;;;23.80;15.15;;;;;;;;;;5043515;28;20029;-78
2022/12/23 16:00:26;;;;;;;25.48;16.15;;;;;;;;;;5041141;28;20434;-78
2022/12/23 16:05:38;;;;;;;26.67;17.52;;;;;;;;;;5043596;28;20060;-78
2022/12/23 16:08:19;;;;;;;24.90;17.00;;;;;;;;;;5037815;28;20051;-79
2022/12/23 16:11:04;;;;;;;26.40;17.95;;;;;;;;;;5042192;28;20032;-77
2022/12/23 16:13:29;;;;;;;24.00;15.30;;;;;;;;;;5055650;28;20132;-80
2022/12/23 16:16:17;;;;;;;25.67;16.35;;;;;;;;;;5030307;28;20127;-77
2022/12/23 16:18:43;;;;;;;28.73;17.65;;;;;;;;;;5054502;28;20446;-79
2022/12/23 16:21:12;;;;;;;26.45;17.20;;;;;;;;;;5064525;28;20032;-78
2022/12/23 16:23:37;;;;;;;23.88;16.27;;;;;;;;;;5041792;28;20032;-79